Time;durP1;ratioP1;P1;durP2;ratioP2;P2;SDS_P1;SDS_P2;PMS_P1;PMS_P2;Temp;Humidity;BMP_temperature;BMP_pressure;BME280_temperature;BME280_humidity;BME280_pressure;Samples;Min_cycle;Max_cycle;Signal;HPM_P1;HPM_P2
2023/10/05 00:00:39;;;;;;;7.60;6.20;;;13.30;1.00;;;;;;5064391;28;20620;-72
2023/10/05 00:03:06;;;;;;;6.53;5.93;;;13.30;1.00;;;;;;5070638;28;20473;-71
2023/10/05 00:05:35;;;;;;;9.40;6.33;;;13.30;1.00;;;;;;5065818;28;20569;-70
2023/10/05 00:08:04;;;;;;;9.90;6.80;;;13.30;1.00;;;;;;5066651;28;20491;-70
2023/10/05 00:10:33;;;;;;;11.77;7.63;;;13.30;1.00;;;;;;5071679;28;20519;-74
2023/10/05 00:13:07;;;;;;;7.13;5.90;;;13.30;1.00;;;;;;5072249;28;20456;-74
2023/10/05 00:15:36;;;;;;;10.30;6.87;;;13.20;1.00;;;;;;5069118;28;21836;-74
2023/10/05 00:18:06;;;;;;;6.73;6.00;;;13.20;1.00;;;;;;5071590;28;20508;-74
2023/10/05 00:20:38;;;;;;;7.57;6.00;;;13.20;1.00;;;;;;5067774;28;21120;-74
2023/10/05 00:23:08;;;;;;;10.33;6.03;;;13.30;1.00;;;;;;5061446;28;20465;-75
2023/10/05 00:25:35;;;;;;;7.80;5.80;;;13.20;1.00;;;;;;5069130;28;20468;-77
2023/10/05 00:28:07;;;;;;;8.13;6.90;;;13.20;1.00;;;;;;5068798;28;20485;-75
2023/10/05 00:30:35;;;;;;;8.50;6.00;;;13.20;1.00;;;;;;5068273;28;20461;-74
2023/10/05 00:33:07;;;;;;;10.10;6.70;;;13.20;1.00;;;;;;5067465;28;20488;-74
2023/10/05 00:35:36;;;;;;;11.40;6.50;;;13.20;1.00;;;;;;5067019;28;20460;-75
2023/10/05 00:38:12;;;;;;;6.77;5.60;;;13.20;1.00;;;;;;5065847;28;20468;-75
2023/10/05 00:40:42;;;;;;;7.90;6.13;;;13.10;1.00;;;;;;5068198;28;20446;-75
2023/10/05 00:43:23;;;;;;;10.90;6.00;;;13.20;1.00;;;;;;5071308;28;20460;-76
2023/10/05 00:45:56;;;;;;;8.47;6.00;;;13.10;1.00;;;;;;5069328;28;20487;-77
2023/10/05 00:48:34;;;;;;;12.33;6.03;;;13.20;1.00;;;;;;5074566;28;20468;-77
2023/10/05 00:51:09;;;;;;;7.33;5.80;;;13.10;1.00;;;;;;5059712;28;22403;-75
2023/10/05 00:53:38;;;;;;;8.10;5.40;;;13.10;1.00;;;;;;5065205;28;20467;-75
2023/10/05 00:56:09;;;;;;;8.47;6.40;;;13.10;1.00;;;;;;5067357;28;20471;-74
2023/10/05 00:58:44;;;;;;;8.60;5.53;;;13.20;1.00;;;;;;5068599;28;20485;-75
2023/10/05 01:01:22;;;;;;;9.00;6.43;;;13.20;1.00;;;;;;5069074;28;20458;-76
2023/10/05 01:04:17;;;;;;;9.47;5.50;;;13.20;1.00;;;;;;5068926;28;20518;-75
2023/10/05 01:06:51;;;;;;;8.90;6.10;;;13.20;1.00;;;;;;5067886;28;20541;-75
2023/10/05 01:09:39;;;;;;;10.87;6.27;;;13.20;1.00;;;;;;5070235;28;22316;-76
2023/10/05 01:12:20;;;;;;;7.40;5.47;;;13.20;1.00;;;;;;5068591;28;20531;-75
2023/10/05 01:14:51;;;;;;;10.80;6.50;;;13.10;1.00;;;;;;5065367;28;20463;-75
2023/10/05 01:17:21;;;;;;;7.93;6.10;;;13.10;1.00;;;;;;5068890;28;21225;-76
2023/10/05 01:19:54;;;;;;;6.93;5.87;;;13.10;1.00;;;;;;5045210;28;22224;-71
2023/10/05 01:22:21;;;;;;;8.33;5.00;;;13.00;1.00;;;;;;5046517;28;20863;-72
2023/10/05 01:24:51;;;;;;;8.63;5.37;;;13.10;1.00;;;;;;5046145;28;20936;-72
2023/10/05 01:27:18;;;;;;;11.03;6.20;;;13.10;1.00;;;;;;5046279;28;20526;-72
2023/10/05 01:29:45;;;;;;;9.80;5.53;;;13.10;1.00;;;;;;5063862;28;20476;-72
2023/10/05 01:32:15;;;;;;;10.40;5.47;;;13.10;1.00;;;;;;5065939;28;22065;-72
2023/10/05 01:34:42;;;;;;;8.67;6.00;;;13.00;1.00;;;;;;5062611;28;20454;-71
2023/10/05 01:37:10;;;;;;;9.47;5.70;;;13.00;1.00;;;;;;5068374;28;20468;-71
2023/10/05 01:39:43;;;;;;;6.80;5.53;;;13.00;1.00;;;;;;5063160;28;20482;-75
2023/10/05 01:42:13;;;;;;;9.37;6.07;;;13.00;1.00;;;;;;5060980;28;20454;-71
2023/10/05 01:44:47;;;;;;;9.00;5.83;;;13.10;1.00;;;;;;5051478;28;20990;-73
2023/10/05 01:47:15;;;;;;;7.73;5.40;;;13.10;1.00;;;;;;5058634;28;20464;-72
2023/10/05 01:49:43;;;;;;;7.10;5.43;;;13.00;1.00;;;;;;5066735;28;20467;-71
2023/10/05 01:52:10;;;;;;;7.77;5.77;;;13.00;1.00;;;;;;5064189;28;20507;-72
2023/10/05 01:54:37;;;;;;;6.70;5.33;;;13.10;1.00;;;;;;5066731;28;20461;-71
2023/10/05 01:57:07;;;;;;;7.73;5.07;;;13.10;1.00;;;;;;5066493;28;20962;-71
2023/10/05 01:59:37;;;;;;;10.33;5.40;;;13.10;1.00;;;;;;5066927;28;20563;-71
2023/10/05 02:02:09;;;;;;;7.40;4.60;;;13.00;1.00;;;;;;5050312;28;20458;-71
2023/10/05 02:04:39;;;;;;;6.00;4.40;;;13.10;1.00;;;;;;5046045;28;20469;-71
2023/10/05 02:07:06;;;;;;;9.80;5.60;;;13.00;1.00;;;;;;5065359;28;20453;-73
2023/10/05 02:09:33;;;;;;;9.47;5.23;;;13.00;1.00;;;;;;5066589;28;21000;-71
2023/10/05 02:12:01;;;;;;;9.53;4.80;;;13.00;1.00;;;;;;5055854;28;20467;-73
2023/10/05 02:14:30;;;;;;;6.40;5.70;;;13.00;1.00;;;;;;5062811;28;20538;-72
2023/10/05 02:17:00;;;;;;;9.70;6.10;;;13.10;1.00;;;;;;5054960;28;20522;-72
2023/10/05 02:19:27;;;;;;;8.30;5.03;;;13.00;1.00;;;;;;5062591;28;20472;-75
2023/10/05 02:21:55;;;;;;;6.30;5.03;;;13.00;1.00;;;;;;5064586;28;20448;-72
2023/10/05 02:24:25;;;;;;;5.60;4.73;;;13.00;1.00;;;;;;5068769;28;20844;-71
2023/10/05 02:29:39;;;;;;;8.23;5.30;;;13.00;1.00;;;;;;5052820;28;20474;-74
2023/10/05 02:32:11;;;;;;;6.73;4.73;;;13.00;1.00;;;;;;5067318;28;20460;-76
2023/10/05 02:34:41;;;;;;;10.30;5.47;;;13.00;1.00;;;;;;5067043;28;20468;-77
2023/10/05 02:37:11;;;;;;;6.30;5.10;;;13.00;1.00;;;;;;5057603;28;20463;-74
2023/10/05 02:39:38;;;;;;;6.33;5.00;;;13.00;1.00;;;;;;5045615;27;20480;-77
2023/10/05 02:42:06;;;;;;;7.37;5.13;;;13.00;1.00;;;;;;5052249;28;20473;-75
2023/10/05 02:44:35;;;;;;;5.70;4.70;;;13.00;1.00;;;;;;5065341;28;21049;-78
2023/10/05 02:47:03;;;;;;;9.93;5.23;;;12.90;1.00;;;;;;5061712;28;20489;-76
2023/10/05 02:49:31;;;;;;;9.27;5.67;;;12.90;1.00;;;;;;5064433;28;20485;-74
2023/10/05 02:51:58;;;;;;;6.60;5.47;;;13.00;1.00;;;;;;5064416;28;21006;-75
2023/10/05 02:54:27;;;;;;;7.07;5.03;;;12.90;1.00;;;;;;5063125;28;20560;-77
2023/10/05 02:56:54;;;;;;;10.27;5.60;;;13.00;1.00;;;;;;5067822;28;20464;-77
2023/10/05 02:59:22;;;;;;;7.10;5.27;;;13.00;1.00;;;;;;5065883;28;20591;-77
2023/10/05 03:01:49;;;;;;;7.63;6.10;;;13.00;1.00;;;;;;5063135;28;21642;-78
2023/10/05 03:04:21;;;;;;;7.17;5.07;;;13.00;1.00;;;;;;5065014;28;20455;-74
2023/10/05 03:06:52;;;;;;;9.60;5.60;;;13.00;1.00;;;;;;5052123;28;20561;-77
2023/10/05 03:09:21;;;;;;;5.27;4.70;;;13.00;1.00;;;;;;5045662;28;20946;-77
2023/10/05 03:11:49;;;;;;;7.90;4.83;;;13.00;1.00;;;;;;5061425;28;20567;-74
2023/10/05 03:14:17;;;;;;;8.73;4.90;;;13.00;1.00;;;;;;5066602;28;20481;-77
2023/10/05 03:16:47;;;;;;;7.13;5.40;;;13.10;1.00;;;;;;5040442;28;20602;-76
2023/10/05 03:19:20;;;;;;;8.93;5.30;;;13.10;1.00;;;;;;5062668;28;20491;-75
2023/10/05 03:21:50;;;;;;;8.97;5.57;;;13.10;1.00;;;;;;5054456;28;20448;-76
2023/10/05 03:24:19;;;;;;;6.70;4.93;;;13.10;1.00;;;;;;5057874;28;20461;-77
2023/10/05 03:26:48;;;;;;;7.00;4.90;;;13.10;1.00;;;;;;5068746;28;21044;-74
2023/10/05 03:29:15;;;;;;;5.67;5.17;;;13.10;1.00;;;;;;5065590;28;20472;-77
2023/10/05 03:31:53;;;;;;;9.77;5.70;;;13.20;1.00;;;;;;5065325;28;20453;-78
2023/10/05 03:34:20;;;;;;;9.70;6.00;;;13.10;1.00;;;;;;5065722;28;20492;-76
2023/10/05 03:36:50;;;;;;;7.50;4.70;;;13.10;1.00;;;;;;5066106;28;20932;-76
2023/10/05 03:39:17;;;;;;;7.40;5.17;;;13.20;1.00;;;;;;5066561;28;20983;-75
2023/10/05 03:41:44;;;;;;;5.40;4.40;;;13.10;1.00;;;;;;5040929;28;20451;-72
2023/10/05 03:44:15;;;;;;;7.67;4.90;;;13.10;1.00;;;;;;5055565;28;20889;-72
2023/10/05 03:46:46;;;;;;;7.47;5.03;;;13.10;1.00;;;;;;5062563;28;21142;-70
2023/10/05 03:49:13;;;;;;;6.40;5.20;;;13.10;1.00;;;;;;5067038;28;20469;-72
2023/10/05 03:51:44;;;;;;;6.53;4.80;;;13.20;1.00;;;;;;5045855;28;20545;-71
2023/10/05 03:54:14;;;;;;;8.40;6.10;;;13.20;1.00;;;;;;5051508;28;20499;-71
2023/10/05 03:56:42;;;;;;;6.40;5.20;;;13.20;1.00;;;;;;5048457;28;20525;-77
2023/10/05 03:59:09;;;;;;;6.13;5.10;;;13.20;1.00;;;;;;5042069;28;20810;-73
2023/10/05 04:01:37;;;;;;;11.93;5.77;;;13.20;1.00;;;;;;5040566;28;20522;-74
2023/10/05 04:04:08;;;;;;;7.47;4.87;;;13.20;1.00;;;;;;5039048;28;20516;-71
2023/10/05 04:06:36;;;;;;;7.37;4.87;;;13.20;1.00;;;;;;5040179;28;20501;-72
2023/10/05 04:09:05;;;;;;;9.50;5.40;;;13.10;1.00;;;;;;5042225;28;20579;-71
2023/10/05 04:11:36;;;;;;;7.93;4.93;;;13.10;1.00;;;;;;5041747;28;20481;-70
2023/10/05 04:14:04;;;;;;;9.47;5.10;;;13.20;1.00;;;;;;5040881;28;20781;-69
2023/10/05 04:16:34;;;;;;;8.17;5.30;;;13.10;1.00;;;;;;5049123;28;20464;-69
2023/10/05 04:19:04;;;;;;;7.33;5.23;;;13.10;1.00;;;;;;5044861;28;20515;-69
2023/10/05 04:21:32;;;;;;;6.87;4.70;;;13.10;1.00;;;;;;5049656;28;20473;-70
2023/10/05 04:23:59;;;;;;;8.33;5.17;;;13.10;1.00;;;;;;5061660;28;21035;-69
2023/10/05 04:26:32;;;;;;;12.10;5.90;;;13.10;1.00;;;;;;5064642;28;20468;-70
2023/10/05 04:29:07;;;;;;;7.50;5.80;;;13.10;1.00;;;;;;5062818;28;20569;-69
2023/10/05 04:31:36;;;;;;;8.77;6.17;;;13.10;1.00;;;;;;5062544;28;20598;-71
2023/10/05 04:34:05;;;;;;;8.23;5.30;;;13.10;1.00;;;;;;5068178;28;20456;-70
2023/10/05 04:36:33;;;;;;;9.07;5.30;;;13.10;1.00;;;;;;5063062;28;20455;-71
2023/10/05 04:38:59;;;;;;;8.80;5.57;;;13.10;1.00;;;;;;5048214;28;20530;-69
2023/10/05 04:41:31;;;;;;;7.60;4.60;;;13.20;1.00;;;;;;5043220;28;20479;-68
2023/10/05 04:43:58;;;;;;;11.60;5.67;;;13.20;1.00;;;;;;5041746;28;20474;-69
2023/10/05 04:46:28;;;;;;;8.27;5.87;;;13.20;1.00;;;;;;5049608;28;20437;-69
2023/10/05 04:49:07;;;;;;;9.13;5.10;;;13.20;1.00;;;;;;5045559;28;20488;-70
2023/10/05 04:51:38;;;;;;;8.23;4.70;;;13.20;1.00;;;;;;5047020;28;20469;-69
2023/10/05 04:54:06;;;;;;;7.70;5.47;;;13.30;1.00;;;;;;5049726;28;20517;-69
2023/10/05 04:56:40;;;;;;;7.07;4.60;;;13.20;1.00;;;;;;5050255;28;20528;-69
2023/10/05 04:59:24;;;;;;;10.77;5.80;;;13.30;1.00;;;;;;5049338;28;20856;-68
2023/10/05 05:02:00;;;;;;;8.27;5.73;;;13.30;1.00;;;;;;5059748;28;20453;-68
2023/10/05 05:04:41;;;;;;;8.97;5.47;;;13.30;1.00;;;;;;5064834;28;20523;-69
2023/10/05 05:07:09;;;;;;;12.00;4.63;;;13.40;1.00;;;;;;5060745;28;20607;-67
2023/10/05 05:09:38;;;;;;;8.57;4.93;;;13.40;1.00;;;;;;5064248;28;20473;-72
2023/10/05 05:12:08;;;;;;;13.73;5.83;;;13.40;1.00;;;;;;5061412;28;20961;-68
2023/10/05 05:14:37;;;;;;;10.03;6.00;;;13.30;1.00;;;;;;5048499;28;20456;-67
2023/10/05 05:17:05;;;;;;;11.00;5.30;;;13.40;1.00;;;;;;5058935;28;20447;-68
2023/10/05 05:19:32;;;;;;;10.53;5.77;;;13.40;1.00;;;;;;5064400;28;20495;-69
2023/10/05 05:22:02;;;;;;;8.53;5.43;;;13.30;1.00;;;;;;5068278;28;20467;-69
2023/10/05 05:24:29;;;;;;;10.57;5.43;;;13.30;1.00;;;;;;5066447;28;20557;-69
2023/10/05 05:27:00;;;;;;;8.17;5.33;;;13.30;1.00;;;;;;5052459;28;20861;-74
2023/10/05 05:29:30;;;;;;;8.97;5.70;;;13.40;1.00;;;;;;5051581;28;20486;-67
2023/10/05 05:31:58;;;;;;;9.67;5.30;;;13.30;1.00;;;;;;5056922;28;20521;-73
2023/10/05 05:34:27;;;;;;;10.33;5.87;;;13.40;1.00;;;;;;5069146;28;20457;-68
2023/10/05 05:36:55;;;;;;;9.40;4.93;;;13.40;1.00;;;;;;5070355;28;20471;-69
2023/10/05 05:39:25;;;;;;;8.03;5.63;;;13.40;1.00;;;;;;5065323;28;21017;-68
2023/10/05 05:41:59;;;;;;;9.53;5.47;;;13.40;1.00;;;;;;5066718;28;20469;-69
2023/10/05 05:44:28;;;;;;;14.23;7.53;;;13.30;1.00;;;;;;5049911;28;20595;-69
2023/10/05 05:46:59;;;;;;;6.43;4.70;;;13.40;1.00;;;;;;5067252;28;20461;-68
2023/10/05 05:49:30;;;;;;;9.20;5.90;;;13.40;1.00;;;;;;5066238;28;20487;-69
2023/10/05 05:51:58;;;;;;;8.17;5.63;;;13.40;1.00;;;;;;5072776;28;21115;-69
2023/10/05 05:54:29;;;;;;;8.07;5.43;;;13.50;1.00;;;;;;5067471;28;20463;-68
2023/10/05 05:56:57;;;;;;;7.67;5.30;;;13.50;1.00;;;;;;5069301;28;20567;-68
2023/10/05 05:59:24;;;;;;;8.63;5.30;;;13.50;1.00;;;;;;5071069;28;20489;-68
2023/10/05 06:01:51;;;;;;;11.07;5.40;;;13.60;1.00;;;;;;5064620;28;20527;-68
2023/10/05 06:04:18;;;;;;;6.60;4.80;;;13.60;1.00;;;;;;5068011;28;20812;-68
2023/10/05 06:06:48;;;;;;;8.40;5.73;;;13.60;1.00;;;;;;5065814;28;20957;-69
2023/10/05 06:09:19;;;;;;;10.43;5.80;;;13.60;1.00;;;;;;5067331;28;20555;-69
2023/10/05 06:11:49;;;;;;;7.03;5.50;;;13.70;1.00;;;;;;5049228;28;21218;-70
2023/10/05 06:14:17;;;;;;;10.60;6.07;;;13.70;1.00;;;;;;5070361;28;20535;-69
2023/10/05 06:16:44;;;;;;;7.90;5.20;;;13.80;1.00;;;;;;5067787;28;20527;-73
2023/10/05 06:19:11;;;;;;;7.50;5.50;;;13.80;1.00;;;;;;5071821;28;20497;-69
2023/10/05 06:21:39;;;;;;;10.53;6.20;;;13.80;1.00;;;;;;5068594;28;20539;-72
2023/10/05 06:24:07;;;;;;;7.67;4.93;;;13.90;1.00;;;;;;5065283;28;20465;-70
2023/10/05 06:26:34;;;;;;;10.70;7.93;;;13.90;1.00;;;;;;5064027;28;20472;-69
2023/10/05 06:29:01;;;;;;;9.40;5.97;;;13.90;1.00;;;;;;5068411;28;21070;-69
2023/10/05 06:31:28;;;;;;;9.10;5.93;;;14.00;1.00;;;;;;5065165;28;21059;-71
2023/10/05 06:33:55;;;;;;;7.43;5.70;;;14.10;1.00;;;;;;5051024;28;20512;-68
2023/10/05 06:36:23;;;;;;;11.17;6.30;;;14.20;1.00;;;;;;5067773;28;20471;-69
2023/10/05 06:38:51;;;;;;;13.33;5.43;;;14.30;1.00;;;;;;5068475;28;21636;-70
2023/10/05 06:41:22;;;;;;;8.67;5.80;;;14.30;1.00;;;;;;5057082;28;20505;-68
2023/10/05 06:43:49;;;;;;;9.33;5.97;;;14.30;1.00;;;;;;5061198;28;20466;-67
2023/10/05 06:46:20;;;;;;;8.90;5.93;;;14.40;1.00;;;;;;5063017;28;20464;-69
2023/10/05 06:48:49;;;;;;;9.80;5.20;;;14.50;1.00;;;;;;5063801;28;20620;-68
2023/10/05 06:51:23;;;;;;;10.30;5.90;;;14.50;1.00;;;;;;5067553;28;22171;-70
2023/10/05 06:53:51;;;;;;;9.57;6.20;;;14.50;1.00;;;;;;5057449;28;20518;-69
2023/10/05 06:56:18;;;;;;;7.33;5.60;;;14.70;1.00;;;;;;5065134;28;20459;-70
2023/10/05 06:58:47;;;;;;;11.77;6.10;;;14.70;1.00;;;;;;5066361;28;20469;-68
2023/10/05 07:01:14;;;;;;;10.97;5.93;;;14.70;1.00;;;;;;5068443;28;21740;-69
2023/10/05 07:03:41;;;;;;;9.03;4.87;;;14.80;1.00;;;;;;5064738;28;20451;-68
2023/10/05 07:06:08;;;;;;;9.33;5.67;;;14.90;1.00;;;;;;5065243;28;20567;-68
2023/10/05 07:08:35;;;;;;;9.30;6.93;;;14.90;1.00;;;;;;5065340;28;21028;-68
2023/10/05 07:11:06;;;;;;;9.87;6.40;;;15.00;1.00;;;;;;5067224;28;20559;-71
2023/10/05 07:13:33;;;;;;;7.77;5.80;;;15.10;1.00;;;;;;5061079;28;20945;-71
2023/10/05 07:16:02;;;;;;;9.47;5.60;;;15.10;1.00;;;;;;5064321;28;20453;-69
2023/10/05 07:18:29;;;;;;;8.97;5.73;;;15.10;1.00;;;;;;5066997;28;20474;-69
2023/10/05 07:20:57;;;;;;;11.73;6.60;;;15.20;1.00;;;;;;5056669;28;21302;-69
2023/10/05 07:23:24;;;;;;;10.37;6.07;;;15.30;1.00;;;;;;5064487;28;20466;-69
2023/10/05 07:25:51;;;;;;;10.13;6.03;;;15.30;1.00;;;;;;5067538;28;20471;-70
2023/10/05 07:28:18;;;;;;;9.20;5.47;;;15.40;1.00;;;;;;5064877;28;21066;-72
2023/10/05 07:30:46;;;;;;;9.20;5.40;;;15.40;1.00;;;;;;5064288;28;20538;-70
2023/10/05 07:33:14;;;;;;;7.17;5.10;;;15.50;1.00;;;;;;5064557;28;20819;-73
2023/10/05 07:35:42;;;;;;;13.70;5.90;;;15.50;1.00;;;;;;5065779;28;20987;-71
2023/10/05 07:38:11;;;;;;;10.37;6.07;;;15.50;1.00;;;;;;5070853;28;21848;-70
2023/10/05 07:40:39;;;;;;;9.80;6.33;;;15.40;1.00;;;;;;5067389;28;20523;-71
2023/10/05 07:43:06;;;;;;;8.77;5.70;;;15.50;1.00;;;;;;5057178;28;20450;-72
2023/10/05 07:45:34;;;;;;;8.80;5.60;;;15.60;1.00;;;;;;5056151;28;20263;-70
2023/10/05 07:48:04;;;;;;;8.37;4.73;;;15.70;1.00;;;;;;5049845;28;20475;-70
2023/10/05 07:50:34;;;;;;;7.20;4.37;;;15.80;1.00;;;;;;5057421;28;20466;-70
2023/10/05 07:53:01;;;;;;;8.77;5.10;;;15.70;1.00;;;;;;5062429;28;20462;-74
2023/10/05 07:55:28;;;;;;;11.67;5.57;;;15.70;1.00;;;;;;5045925;28;20463;-75
2023/10/05 07:57:55;;;;;;;8.57;5.67;;;15.70;1.00;;;;;;5050044;28;20982;-71
2023/10/05 08:00:21;;;;;;;11.10;4.80;;;15.80;1.00;;;;;;5069670;28;20566;-70
2023/10/05 08:02:49;;;;;;;8.00;5.70;;;15.90;1.00;;;;;;5067977;28;20542;-70
2023/10/05 08:05:16;;;;;;;6.70;4.07;;;16.00;1.00;;;;;;5066582;28;20455;-71
2023/10/05 08:07:45;;;;;;;7.57;4.80;;;16.00;1.00;;;;;;5065046;28;20989;-71
2023/10/05 08:10:18;;;;;;;7.63;5.27;;;16.00;1.00;;;;;;5065070;28;20467;-73
2023/10/05 08:12:45;;;;;;;12.20;4.93;;;16.20;1.00;;;;;;5056544;28;20770;-70
2023/10/05 08:15:18;;;;;;;9.00;4.53;;;16.30;1.00;;;;;;5073241;28;20455;-70
2023/10/05 08:17:45;;;;;;;6.33;4.40;;;16.50;1.00;;;;;;5065053;28;20470;-71
2023/10/05 08:20:12;;;;;;;7.73;4.37;;;16.70;1.00;;;;;;5065441;28;20978;-75
2023/10/05 08:22:41;;;;;;;7.13;4.03;;;16.80;1.00;;;;;;5069537;28;20459;-75
2023/10/05 08:25:11;;;;;;;7.67;4.70;;;16.90;1.00;;;;;;5073111;28;20467;-76
2023/10/05 08:27:39;;;;;;;11.87;5.47;;;16.70;1.00;;;;;;5059395;28;20462;-75
2023/10/05 08:30:08;;;;;;;8.80;5.30;;;16.80;1.00;;;;;;5055361;28;20464;-73
2023/10/05 08:32:36;;;;;;;8.80;5.83;;;16.70;1.00;;;;;;5047116;28;20456;-75
2023/10/05 08:35:07;;;;;;;8.70;5.03;;;16.80;1.00;;;;;;5052834;28;21282;-75
2023/10/05 08:37:42;;;;;;;8.97;4.37;;;16.80;1.00;;;;;;5049965;28;20575;-75
2023/10/05 08:40:30;;;;;;;7.80;4.67;;;16.90;1.00;;;;;;5049621;28;20463;-75
2023/10/05 08:43:08;;;;;;;8.07;4.60;;;17.00;1.00;;;;;;5071665;28;20487;-75
2023/10/05 08:45:45;;;;;;;10.60;4.70;;;16.90;1.00;;;;;;5072088;28;20475;-77
2023/10/05 08:48:15;;;;;;;10.23;5.20;;;16.80;1.00;;;;;;5066338;28;20560;-74
2023/10/05 08:50:44;;;;;;;12.40;4.47;;;16.70;1.00;;;;;;5069728;28;21327;-75
2023/10/05 08:53:14;;;;;;;9.30;3.67;;;16.70;1.00;;;;;;5069037;28;20479;-74
2023/10/05 08:55:46;;;;;;;8.63;4.90;;;16.80;1.00;;;;;;5072148;28;20866;-75
2023/10/05 08:58:18;;;;;;;7.47;4.77;;;17.20;1.00;;;;;;5070829;28;20495;-75
2023/10/05 09:00:45;;;;;;;8.30;4.43;;;17.40;1.00;;;;;;5071809;28;20454;-74
2023/10/05 09:03:28;;;;;;;11.57;5.33;;;17.40;1.00;;;;;;5069743;28;20529;-73
2023/10/05 09:06:13;;;;;;;6.07;4.93;;;17.40;1.00;;;;;;5070180;28;20463;-77
2023/10/05 09:08:51;;;;;;;9.97;4.43;;;17.80;1.00;;;;;;5067550;28;20520;-74
2023/10/05 09:11:22;;;;;;;7.33;4.80;;;18.40;1.00;;;;;;5072576;28;21050;-74
2023/10/05 09:13:49;;;;;;;8.73;4.53;;;18.80;1.00;;;;;;5071545;28;20543;-75
2023/10/05 09:16:30;;;;;;;6.37;4.90;;;18.50;1.00;;;;;;5072614;28;20464;-74
2023/10/05 09:19:00;;;;;;;10.17;4.57;;;18.50;1.00;;;;;;5065467;28;21825;-74
2023/10/05 09:21:55;;;;;;;7.37;4.20;;;18.90;1.00;;;;;;5069769;28;20711;-75
2023/10/05 09:24:22;;;;;;;9.33;4.03;;;19.10;1.00;;;;;;5064391;28;20544;-74
2023/10/05 09:27:09;;;;;;;8.07;3.80;;;19.00;1.00;;;;;;5072361;28;20483;-75
2023/10/05 09:29:37;;;;;;;17.23;14.93;;;19.10;1.00;;;;;;5071063;28;20488;-75
2023/10/05 09:32:11;;;;;;;5.63;4.50;;;18.90;1.00;;;;;;5069426;28;20459;-71
2023/10/05 09:34:44;;;;;;;10.90;5.50;;;18.80;1.00;;;;;;5069567;28;20450;-71
2023/10/05 09:37:13;;;;;;;9.70;4.90;;;18.60;1.00;;;;;;5068912;28;20547;-70
2023/10/05 09:39:49;;;;;;;7.20;5.27;;;18.40;1.00;;;;;;5066026;28;20475;-72
2023/10/05 09:42:22;;;;;;;5.93;5.17;;;18.20;1.00;;;;;;5069435;28;20550;-70
2023/10/05 09:44:52;;;;;;;8.03;4.80;;;18.10;1.00;;;;;;5071176;28;20459;-71
2023/10/05 09:47:26;;;;;;;8.23;4.63;;;18.00;1.00;;;;;;5069588;28;20483;-74
2023/10/05 09:49:58;;;;;;;9.70;5.30;;;18.20;1.00;;;;;;5068351;28;20566;-67
2023/10/05 09:52:31;;;;;;;9.83;5.10;;;18.50;1.00;;;;;;5061371;28;20464;-69
2023/10/05 09:54:59;;;;;;;9.73;4.30;;;18.60;1.00;;;;;;5068017;28;20543;-72
2023/10/05 09:57:28;;;;;;;6.33;4.10;;;18.50;1.00;;;;;;5070287;28;20451;-70
2023/10/05 09:59:59;;;;;;;11.10;4.97;;;18.20;1.00;;;;;;5071114;28;20536;-70
2023/10/05 10:02:32;;;;;;;11.37;5.10;;;18.10;1.00;;;;;;5057034;28;20975;-71
2023/10/05 10:05:03;;;;;;;8.03;4.90;;;17.90;1.00;;;;;;5047339;28;20453;-71
2023/10/05 10:07:32;;;;;;;6.57;4.37;;;17.70;1.00;;;;;;5050066;28;20464;-70
2023/10/05 10:10:04;;;;;;;7.27;4.10;;;17.70;1.00;;;;;;5071186;28;20502;-69
2023/10/05 10:12:38;;;;;;;7.40;4.10;;;17.60;1.00;;;;;;5069125;28;20552;-69
2023/10/05 10:15:24;;;;;;;6.87;4.13;;;17.50;1.00;;;;;;5058901;28;20483;-70
2023/10/05 10:18:03;;;;;;;5.03;4.53;;;17.50;1.00;;;;;;5066239;28;20459;-71
2023/10/05 10:20:36;;;;;;;6.50;4.00;;;17.60;1.00;;;;;;5071104;28;20478;-70
2023/10/05 10:23:14;;;;;;;8.43;4.97;;;17.60;1.00;;;;;;5066978;28;20905;-74
2023/10/05 10:25:42;;;;;;;5.80;4.60;;;17.60;1.00;;;;;;5073515;28;20587;-70
2023/10/05 10:28:18;;;;;;;9.13;4.87;;;17.60;1.00;;;;;;5068094;28;20563;-70
2023/10/05 10:30:50;;;;;;;6.63;4.50;;;17.50;1.00;;;;;;5067922;28;20466;-74
2023/10/05 10:33:26;;;;;;;9.50;4.40;;;17.50;1.00;;;;;;5072601;28;20463;-73
2023/10/05 10:35:54;;;;;;;5.07;4.57;;;17.50;1.00;;;;;;5054424;28;20451;-68
2023/10/05 10:38:23;;;;;;;7.27;4.97;;;17.30;1.00;;;;;;5044363;28;20460;-69
2023/10/05 10:41:11;;;;;;;8.57;4.90;;;17.00;1.00;;;;;;5058818;28;20493;-73
2023/10/05 10:43:40;;;;;;;7.47;5.20;;;16.90;1.00;;;;;;5067856;28;20466;-71
2023/10/05 10:46:14;;;;;;;7.10;4.93;;;17.00;1.00;;;;;;5072080;28;21316;-70
2023/10/05 10:48:53;;;;;;;7.63;5.27;;;17.00;1.00;;;;;;5069589;28;20482;-70
2023/10/05 10:51:22;;;;;;;8.87;5.87;;;16.70;1.00;;;;;;5061841;28;21004;-70
2023/10/05 10:53:56;;;;;;;7.00;4.47;;;16.60;1.00;;;;;;5048480;28;20890;-72
2023/10/05 10:56:29;;;;;;;7.40;5.30;;;16.40;1.00;;;;;;5050022;28;20467;-73
2023/10/05 10:59:09;;;;;;;8.13;5.07;;;16.30;1.00;;;;;;5060601;28;21077;-73
2023/10/05 11:01:43;;;;;;;6.70;5.03;;;16.20;1.00;;;;;;5068581;28;20467;-69
2023/10/05 11:04:25;;;;;;;10.30;5.73;;;16.20;1.00;;;;;;5054815;28;20519;-71
2023/10/05 11:07:05;;;;;;;6.83;5.30;;;16.20;1.00;;;;;;5054539;28;20456;-68
2023/10/05 11:09:36;;;;;;;6.03;5.13;;;16.20;1.00;;;;;;5048497;28;20464;-70
2023/10/05 11:12:15;;;;;;;7.77;4.53;;;16.20;1.00;;;;;;5055154;28;20971;-69
2023/10/05 11:14:45;;;;;;;8.03;5.40;;;16.30;1.00;;;;;;5060022;28;20450;-71
2023/10/05 11:17:28;;;;;;;6.60;5.10;;;16.20;1.00;;;;;;5052283;28;20873;-69
2023/10/05 11:19:58;;;;;;;5.73;4.70;;;16.10;1.00;;;;;;5048610;28;20452;-70
2023/10/05 11:22:25;;;;;;;6.10;5.30;;;16.00;1.00;;;;;;5047224;28;20879;-70
2023/10/05 11:25:15;;;;;;;7.63;4.73;;;16.00;1.00;;;;;;5049748;28;20463;-70
2023/10/05 11:27:45;;;;;;;6.43;4.73;;;16.10;1.00;;;;;;5048150;28;21270;-72
2023/10/05 11:30:21;;;;;;;6.50;4.47;;;16.20;1.00;;;;;;5042031;28;20510;-71
2023/10/05 11:32:54;;;;;;;6.70;4.30;;;16.30;1.00;;;;;;5045264;28;20997;-69
2023/10/05 11:35:40;;;;;;;5.50;4.30;;;16.40;1.00;;;;;;5055291;28;20814;-74
2023/10/05 11:38:14;;;;;;;8.30;4.20;;;16.80;1.00;;;;;;5069512;28;20467;-70
2023/10/05 11:40:49;;;;;;;7.37;5.20;;;17.10;1.00;;;;;;5066181;28;20596;-71
2023/10/05 11:43:17;;;;;;;8.83;4.27;;;17.20;1.00;;;;;;5059129;28;20601;-70
2023/10/05 11:45:59;;;;;;;4.93;4.53;;;17.30;1.00;;;;;;5047988;28;20435;-69
2023/10/05 11:48:40;;;;;;;8.20;4.33;;;17.30;1.00;;;;;;5046574;28;20468;-70
2023/10/05 11:51:11;;;;;;;8.20;4.90;;;17.40;1.00;;;;;;5056145;28;20557;-72
2023/10/05 11:53:39;;;;;;;6.53;4.40;;;17.30;1.00;;;;;;5063858;28;21070;-70
2023/10/05 11:56:07;;;;;;;7.90;4.40;;;17.20;1.00;;;;;;5065265;28;21175;-72
2023/10/05 11:58:36;;;;;;;5.53;4.93;;;16.90;1.00;;;;;;5066540;28;21298;-73
2023/10/05 12:01:05;;;;;;;6.03;5.10;;;16.50;1.00;;;;;;5065721;28;20471;-70
2023/10/05 12:03:32;;;;;;;12.03;5.43;;;16.20;1.00;;;;;;5070146;28;20494;-70
2023/10/05 12:06:01;;;;;;;6.33;5.70;;;16.00;1.00;;;;;;5062413;28;20455;-71
2023/10/05 12:08:29;;;;;;;8.20;5.87;;;15.90;1.00;;;;;;5069693;28;20475;-70
2023/10/05 12:10:59;;;;;;;6.73;6.10;;;15.90;1.00;;;;;;5071253;28;20456;-71
2023/10/05 12:13:26;;;;;;;8.50;6.03;;;15.80;1.00;;;;;;5053423;28;20467;-71
2023/10/05 12:15:53;;;;;;;7.60;5.83;;;16.00;1.00;;;;;;5075848;27;20977;-71
2023/10/05 12:18:22;;;;;;;7.57;5.00;;;16.20;1.00;;;;;;5060181;28;20977;-70
2023/10/05 12:20:50;;;;;;;10.87;7.07;;;16.50;1.00;;;;;;5048030;28;21202;-73
2023/10/05 12:23:17;;;;;;;6.07;4.90;;;16.70;1.00;;;;;;5069457;28;20474;-69
2023/10/05 12:25:45;;;;;;;8.70;6.10;;;16.70;1.00;;;;;;5068927;28;20456;-70
2023/10/05 12:28:13;;;;;;;7.33;5.37;;;16.60;1.00;;;;;;5074931;28;20488;-70
2023/10/05 12:30:44;;;;;;;7.37;5.13;;;16.60;1.00;;;;;;5064107;28;20474;-70
2023/10/05 12:33:11;;;;;;;8.93;5.60;;;16.70;1.00;;;;;;5063888;28;20470;-72
2023/10/05 12:35:43;;;;;;;6.00;5.40;;;16.90;1.00;;;;;;5069714;27;20970;-71
2023/10/05 12:38:14;;;;;;;7.33;4.83;;;17.00;1.00;;;;;;5068965;28;20959;-73
2023/10/05 12:40:41;;;;;;;8.40;6.07;;;17.00;1.00;;;;;;5069389;28;20466;-71
2023/10/05 12:43:09;;;;;;;6.70;5.23;;;17.00;1.00;;;;;;5072298;28;20479;-72
2023/10/05 12:45:37;;;;;;;8.33;4.90;;;16.90;1.00;;;;;;5067159;28;20471;-72
2023/10/05 12:48:04;;;;;;;8.47;4.57;;;16.90;1.00;;;;;;5074678;28;20495;-70
2023/10/05 12:50:31;;;;;;;7.60;5.33;;;16.70;1.00;;;;;;5076036;28;20458;-75
2023/10/05 12:53:00;;;;;;;6.33;5.20;;;16.70;1.00;;;;;;5059358;28;20480;-68
2023/10/05 12:55:28;;;;;;;6.33;5.40;;;16.60;1.00;;;;;;5049355;28;20541;-71
2023/10/05 12:57:57;;;;;;;6.80;5.90;;;16.50;1.00;;;;;;5053332;28;21643;-70
2023/10/05 13:00:28;;;;;;;7.80;6.50;;;16.50;1.00;;;;;;5053763;28;21557;-76
2023/10/05 13:02:56;;;;;;;7.23;6.20;;;16.30;1.00;;;;;;5052395;28;20478;-76
2023/10/05 13:05:28;;;;;;;7.20;6.20;;;16.20;1.00;;;;;;5052795;28;20510;-76
2023/10/05 13:07:55;;;;;;;6.90;6.07;;;16.00;1.00;;;;;;5053702;28;20471;-75
2023/10/05 13:10:29;;;;;;;7.33;6.63;;;15.90;1.00;;;;;;5049402;28;20475;-74
2023/10/05 13:13:00;;;;;;;10.73;8.50;;;15.70;1.00;;;;;;5047752;28;20448;-75
2023/10/05 13:15:32;;;;;;;8.97;5.50;;;15.60;1.00;;;;;;5061282;28;20480;-76